createdAt,value
2023-05-19T00:00:59.091Z,85.10
2023-05-19T00:03:27.082Z,85.00
2023-05-19T00:05:54.165Z,85.00
2023-05-19T00:08:22.741Z,85.00
2023-05-19T00:10:49.596Z,84.80
2023-05-19T00:13:16.488Z,85.20
2023-05-19T00:15:43.409Z,85.10
2023-05-19T00:18:14.013Z,85.60
2023-05-19T00:20:41.360Z,85.30
2023-05-19T00:23:08.436Z,85.80
2023-05-19T00:25:35.200Z,85.90
2023-05-19T00:28:03.044Z,86.20
2023-05-19T00:30:30.351Z,86.40
2023-05-19T00:32:57.468Z,86.50
2023-05-19T00:35:24.385Z,86.80
2023-05-19T00:37:51.136Z,86.90
2023-05-19T00:40:17.997Z,86.90
2023-05-19T00:42:44.848Z,87.10
2023-05-19T00:45:11.706Z,86.90
2023-05-19T00:47:39.132Z,87.10
2023-05-19T00:50:06.063Z,87.20
2023-05-19T00:52:32.859Z,87.30
2023-05-19T00:54:59.606Z,87.20
2023-05-19T00:57:27.161Z,87.30
2023-05-19T00:59:54.141Z,87.30
2023-05-19T01:02:21.599Z,87.30
2023-05-19T01:04:49.947Z,87.90
2023-05-19T01:07:16.791Z,87.70
2023-05-19T01:09:43.593Z,88.20
2023-05-19T01:12:10.641Z,88.10
2023-05-19T01:14:37.417Z,88.40
2023-05-19T01:17:05.571Z,88.70
2023-05-19T01:19:41.484Z,88.70
2023-05-19T01:22:32.106Z,88.50
2023-05-19T01:25:17.880Z,88.60
2023-05-19T01:28:07.730Z,88.60
2023-05-19T01:30:37.834Z,88.80
2023-05-19T01:33:07.254Z,88.70
2023-05-19T01:35:35.547Z,88.60
2023-05-19T01:38:03.413Z,88.80
2023-05-19T01:40:31.096Z,88.90
2023-05-19T01:42:59.376Z,88.70
2023-05-19T01:45:27.846Z,88.80
2023-05-19T01:47:56.125Z,88.40
2023-05-19T01:50:23.105Z,88.30
2023-05-19T01:52:49.963Z,87.80
2023-05-19T01:55:17.028Z,87.40
2023-05-19T01:57:49.580Z,87.00
2023-05-19T02:00:20.568Z,86.90
2023-05-19T02:03:06.672Z,86.60
2023-05-19T02:05:48.365Z,86.70
2023-05-19T02:08:24.388Z,86.50
2023-05-19T02:10:54.937Z,86.40
2023-05-19T02:13:23.881Z,86.90
2023-05-19T02:15:52.291Z,85.90
2023-05-19T02:18:20.418Z,85.60
2023-05-19T02:20:47.204Z,85.30
2023-05-19T02:23:13.930Z,85.70
2023-05-19T02:25:40.831Z,85.40
2023-05-19T02:28:07.585Z,85.40
2023-05-19T02:30:34.518Z,85.00
2023-05-19T02:33:01.473Z,84.30
2023-05-19T02:35:28.307Z,84.20
2023-05-19T02:37:55.159Z,83.80
2023-05-19T02:40:22.185Z,83.40
2023-05-19T02:42:48.905Z,82.80
2023-05-19T02:45:15.698Z,82.30
2023-05-19T02:47:42.459Z,81.20
2023-05-19T02:50:09.336Z,80.30
2023-05-19T02:52:36.052Z,79.60
2023-05-19T02:55:02.771Z,78.90
2023-05-19T02:57:30.068Z,77.90
2023-05-19T02:59:56.787Z,76.70
2023-05-19T03:02:23.684Z,77.20
2023-05-19T03:04:50.955Z,76.40
2023-05-19T03:07:17.747Z,75.50
2023-05-19T03:09:44.437Z,75.00
2023-05-19T03:12:11.177Z,74.80
2023-05-19T03:14:38.604Z,74.60
2023-05-19T03:17:08.464Z,73.10
2023-05-19T03:19:35.305Z,72.50
2023-05-19T03:22:02.149Z,72.00
2023-05-19T03:24:28.912Z,68.60
2023-05-19T03:26:55.797Z,66.40
2023-05-19T03:29:22.714Z,63.30
2023-05-19T03:31:49.470Z,62.00
2023-05-19T03:34:16.240Z,58.60
2023-05-19T03:36:44.788Z,56.90
2023-05-19T03:39:11.715Z,54.20
2023-05-19T03:41:38.560Z,53.30
2023-05-19T03:44:05.454Z,53.00
2023-05-19T03:46:32.217Z,52.10
2023-05-19T03:48:58.946Z,51.80
2023-05-19T03:51:26.046Z,52.50
2023-05-19T03:53:52.844Z,52.30
2023-05-19T03:56:23.064Z,52.20
2023-05-19T03:58:49.931Z,51.20
2023-05-19T04:01:16.677Z,50.00
2023-05-19T04:03:43.478Z,49.20
2023-05-19T04:06:10.868Z,50.10
2023-05-19T04:08:37.635Z,52.00
2023-05-19T04:11:04.421Z,52.40
2023-05-19T04:13:33.219Z,55.80
2023-05-19T04:16:00.040Z,55.20
2023-05-19T04:18:28.927Z,54.30
2023-05-19T04:20:56.046Z,53.20
2023-05-19T04:23:22.799Z,52.40
2023-05-19T04:25:49.787Z,52.00
2023-05-19T04:28:16.613Z,52.80
2023-05-19T04:30:43.381Z,53.10
2023-05-19T04:33:10.257Z,52.70
2023-05-19T04:35:38.214Z,51.70
2023-05-19T04:38:05.123Z,50.50
2023-05-19T04:40:32.186Z,50.60
2023-05-19T04:43:02.151Z,50.20
2023-05-19T04:45:29.159Z,49.80
2023-05-19T04:47:58.252Z,49.70
2023-05-19T04:50:25.332Z,49.80
2023-05-19T04:52:52.107Z,49.90
2023-05-19T04:55:19.014Z,46.30
2023-05-19T04:57:45.768Z,48.40
2023-05-19T05:00:14.195Z,49.50
2023-05-19T05:02:42.930Z,46.90
2023-05-19T05:05:10.198Z,46.90
2023-05-19T05:07:37.014Z,47.60
2023-05-19T05:10:04.042Z,47.20
2023-05-19T05:12:31.667Z,46.50
2023-05-19T05:14:58.675Z,46.10
2023-05-19T05:17:25.749Z,46.10
2023-05-19T05:19:52.950Z,44.90
2023-05-19T05:22:20.022Z,45.50
2023-05-19T05:24:46.839Z,44.10
2023-05-19T05:27:14.551Z,43.80
2023-05-19T05:29:41.372Z,43.00
2023-05-19T05:32:08.241Z,43.10
2023-05-19T05:34:35.995Z,42.80
2023-05-19T05:37:02.699Z,44.90
2023-05-19T05:39:29.598Z,43.70
2023-05-19T05:41:56.407Z,41.00
2023-05-19T05:44:23.200Z,41.30
2023-05-19T05:46:50.111Z,41.00
2023-05-19T05:49:16.998Z,41.80
2023-05-19T05:51:51.349Z,41.80
2023-05-19T05:54:28.602Z,41.80
2023-05-19T05:56:55.449Z,42.90
2023-05-19T05:59:22.342Z,42.10
2023-05-19T06:01:49.108Z,42.20
2023-05-19T06:04:16.050Z,42.40
2023-05-19T06:06:42.844Z,40.60
2023-05-19T06:09:09.601Z,40.70
2023-05-19T06:11:36.814Z,42.40
2023-05-19T06:14:04.269Z,41.20
2023-05-19T06:16:31.080Z,42.20
2023-05-19T06:18:59.028Z,40.70
2023-05-19T06:21:26.043Z,40.30
2023-05-19T06:23:53.339Z,41.10
2023-05-19T06:26:22.209Z,41.40
2023-05-19T06:28:48.965Z,41.30
2023-05-19T06:31:16.521Z,39.20
2023-05-19T06:33:43.329Z,40.10
2023-05-19T06:36:10.718Z,39.60
2023-05-19T06:38:37.443Z,40.00
2023-05-19T06:41:04.235Z,40.00
2023-05-19T06:43:31.027Z,40.70
2023-05-19T06:45:57.817Z,39.10
2023-05-19T06:48:24.616Z,39.20
2023-05-19T06:50:51.864Z,38.30
2023-05-19T06:53:19.506Z,37.80
2023-05-19T06:55:58.025Z,38.50
2023-05-19T06:58:25.192Z,37.70
2023-05-19T07:00:51.950Z,37.60
2023-05-19T07:03:18.823Z,37.20
2023-05-19T07:05:45.916Z,37.10
2023-05-19T07:08:12.661Z,36.90
2023-05-19T07:10:39.477Z,36.20
2023-05-19T07:13:06.331Z,36.40
2023-05-19T07:15:33.652Z,37.20
2023-05-19T07:18:00.594Z,37.50
2023-05-19T07:20:27.426Z,36.30
2023-05-19T07:22:54.302Z,36.90
2023-05-19T07:25:21.090Z,37.00
2023-05-19T07:27:47.919Z,36.70
2023-05-19T07:30:16.780Z,35.90
2023-05-19T07:32:43.645Z,35.80
2023-05-19T07:35:10.672Z,36.30
2023-05-19T07:37:37.504Z,35.60
2023-05-19T07:40:04.936Z,36.00
2023-05-19T07:42:31.638Z,36.10
2023-05-19T07:44:58.393Z,36.00
2023-05-19T07:47:25.266Z,36.30
2023-05-19T07:49:52.203Z,36.20
2023-05-19T07:52:18.964Z,35.40
2023-05-19T07:54:45.880Z,34.90
2023-05-19T07:57:12.665Z,34.90
2023-05-19T07:59:39.477Z,36.10
2023-05-19T08:02:06.700Z,35.90
2023-05-19T08:04:33.775Z,36.20
2023-05-19T08:07:00.851Z,36.10
2023-05-19T08:09:27.654Z,36.20
2023-05-19T08:11:54.464Z,36.00
2023-05-19T08:14:22.954Z,36.60
2023-05-19T08:16:50.044Z,36.20
2023-05-19T08:19:16.828Z,34.90
2023-05-19T08:21:44.781Z,36.50
2023-05-19T08:24:11.741Z,36.50
2023-05-19T08:26:38.790Z,36.20
2023-05-19T08:29:05.658Z,36.80
2023-05-19T08:31:32.705Z,36.60
2023-05-19T08:33:59.898Z,36.20
2023-05-19T08:36:27.651Z,36.70
2023-05-19T08:38:54.583Z,36.10
2023-05-19T08:41:23.283Z,36.80
2023-05-19T08:43:50.365Z,35.80
2023-05-19T08:46:18.349Z,36.50
2023-05-19T08:48:47.190Z,36.60
2023-05-19T08:51:32.130Z,35.80
2023-05-19T08:54:05.338Z,35.80
2023-05-19T08:56:32.790Z,35.00
2023-05-19T08:59:02.298Z,35.60
2023-05-19T09:01:30.585Z,35.60
2023-05-19T09:03:58.250Z,35.30
2023-05-19T09:06:26.378Z,34.80
2023-05-19T09:08:53.559Z,34.60
2023-05-19T09:11:22.793Z,35.10
2023-05-19T09:13:50.542Z,34.70
2023-05-19T09:16:18.008Z,36.20
2023-05-19T09:18:56.313Z,36.00
2023-05-19T09:21:33.069Z,34.80
2023-05-19T09:24:08.357Z,35.00
2023-05-19T09:26:40.462Z,34.00
2023-05-19T09:29:17.145Z,34.20
2023-05-19T09:31:51.713Z,34.30
2023-05-19T09:34:19.825Z,34.90
2023-05-19T09:36:50.067Z,34.40
2023-05-19T09:39:17.954Z,34.40
2023-05-19T09:41:45.513Z,33.70
2023-05-19T09:44:21.488Z,34.30
2023-05-19T09:46:52.858Z,33.30
2023-05-19T09:49:45.980Z,34.30
2023-05-19T09:52:16.339Z,32.90
2023-05-19T09:54:43.140Z,34.20
2023-05-19T09:57:10.001Z,34.20
2023-05-19T09:59:39.044Z,34.90
2023-05-19T10:02:06.381Z,34.30
2023-05-19T10:04:33.838Z,34.60
2023-05-19T10:07:06.033Z,34.20
2023-05-19T10:09:34.103Z,33.70
2023-05-19T10:12:02.127Z,33.60
2023-05-19T10:14:29.748Z,33.30
2023-05-19T10:16:57.843Z,33.60
2023-05-19T10:19:25.807Z,33.50
2023-05-19T10:21:53.242Z,33.90
2023-05-19T10:24:21.446Z,34.00
2023-05-19T10:26:51.277Z,34.10
2023-05-19T10:29:21.156Z,34.80
2023-05-19T10:31:50.695Z,34.10
2023-05-19T10:34:22.155Z,33.90
2023-05-19T10:36:50.498Z,34.30
2023-05-19T10:39:19.011Z,34.50
2023-05-19T10:41:53.817Z,34.00
2023-05-19T10:44:26.362Z,34.50
2023-05-19T10:46:55.730Z,34.40
2023-05-19T10:49:23.735Z,35.10
2023-05-19T10:51:52.160Z,34.70
2023-05-19T10:54:39.194Z,34.90
2023-05-19T10:57:07.137Z,34.70
2023-05-19T10:59:35.644Z,34.30
2023-05-19T11:02:07.509Z,33.60
2023-05-19T11:04:51.700Z,33.60
2023-05-19T11:07:24.706Z,33.60
2023-05-19T11:09:52.480Z,33.40
2023-05-19T11:12:24.705Z,32.60
2023-05-19T11:14:55.915Z,32.80
2023-05-19T11:17:25.718Z,32.60
2023-05-19T11:19:57.126Z,32.70
2023-05-19T11:22:25.892Z,32.50
2023-05-19T11:24:54.676Z,32.70
2023-05-19T11:27:21.403Z,33.10
2023-05-19T11:29:49.020Z,32.90
2023-05-19T11:32:16.141Z,33.00
2023-05-19T11:34:44.220Z,33.10
2023-05-19T11:37:11.431Z,33.00
2023-05-19T11:39:39.260Z,33.10
2023-05-19T11:42:06.102Z,32.90
2023-05-19T11:44:32.868Z,33.10
2023-05-19T11:47:00.114Z,33.60
2023-05-19T11:49:29.627Z,34.00
2023-05-19T11:51:56.680Z,34.20
2023-05-19T11:54:29.310Z,34.00
2023-05-19T11:56:56.657Z,33.90
2023-05-19T11:59:34.958Z,34.60
2023-05-19T12:02:03.953Z,35.20
2023-05-19T12:04:31.965Z,34.50
2023-05-19T12:06:59.582Z,34.30
2023-05-19T12:09:28.316Z,34.40
2023-05-19T12:11:55.441Z,33.50
2023-05-19T12:14:22.505Z,34.30
2023-05-19T12:16:49.393Z,35.10
2023-05-19T12:19:16.263Z,35.60
2023-05-19T12:21:43.453Z,35.90
2023-05-19T12:24:10.442Z,36.10
2023-05-19T12:26:37.544Z,35.60
2023-05-19T12:29:07.288Z,35.30
2023-05-19T12:31:35.035Z,35.50
2023-05-19T12:34:02.211Z,35.20
2023-05-19T12:36:29.242Z,35.30
2023-05-19T12:38:56.166Z,35.10
2023-05-19T12:41:24.332Z,34.80
2023-05-19T12:43:51.191Z,34.40
2023-05-19T12:46:19.102Z,34.70
2023-05-19T12:48:46.423Z,34.40
2023-05-19T12:51:19.666Z,34.30
2023-05-19T12:53:47.447Z,34.80
2023-05-19T12:56:14.713Z,35.60
2023-05-19T12:58:41.953Z,35.00
2023-05-19T13:01:15.901Z,36.20
2023-05-19T13:03:42.970Z,38.70
2023-05-19T13:06:10.694Z,42.50
2023-05-19T13:08:38.725Z,45.00
2023-05-19T13:11:05.593Z,45.50
2023-05-19T13:13:32.463Z,45.40
2023-05-19T13:15:59.440Z,46.20
2023-05-19T13:18:27.624Z,47.30
2023-05-19T13:20:54.714Z,47.90
2023-05-19T13:23:21.691Z,47.70
2023-05-19T13:25:49.496Z,47.80
2023-05-19T13:28:16.370Z,48.70
2023-05-19T13:30:43.658Z,48.70
2023-05-19T13:33:11.512Z,49.20
2023-05-19T13:35:38.929Z,49.20
2023-05-19T13:38:06.776Z,49.70
2023-05-19T13:40:34.982Z,49.40
2023-05-19T13:43:02.753Z,49.60
2023-05-19T13:45:29.894Z,49.60
2023-05-19T13:47:57.076Z,50.10
2023-05-19T13:50:23.993Z,50.20
2023-05-19T13:52:50.767Z,50.20
2023-05-19T13:55:17.665Z,51.10
2023-05-19T13:57:44.918Z,50.70
2023-05-19T14:00:11.812Z,50.80
2023-05-19T14:02:39.368Z,49.70
2023-05-19T14:05:06.786Z,50.40
2023-05-19T14:07:35.102Z,50.30
2023-05-19T14:10:02.896Z,50.50
2023-05-19T14:12:41.384Z,50.70
2023-05-19T14:15:14.531Z,49.90
2023-05-19T14:17:41.758Z,50.30
2023-05-19T14:20:09.645Z,50.50
2023-05-19T14:22:36.519Z,48.50
2023-05-19T14:25:03.669Z,48.30
2023-05-19T14:27:30.476Z,48.40
2023-05-19T14:29:57.367Z,48.70
2023-05-19T14:32:24.265Z,48.60
2023-05-19T14:34:53.837Z,49.00
2023-05-19T14:37:20.851Z,48.60
2023-05-19T14:39:47.605Z,48.40
2023-05-19T14:42:14.468Z,48.40
2023-05-19T14:44:41.248Z,47.90
2023-05-19T14:47:08.445Z,48.10
2023-05-19T14:49:35.528Z,48.10
2023-05-19T14:52:02.449Z,48.20
2023-05-19T14:54:29.210Z,48.10
2023-05-19T14:56:55.980Z,46.90
2023-05-19T14:59:22.829Z,46.80
2023-05-19T15:01:49.729Z,47.20
2023-05-19T15:04:16.653Z,46.60
2023-05-19T15:06:43.671Z,47.00
2023-05-19T15:09:15.260Z,47.60
2023-05-19T15:11:42.127Z,48.00
2023-05-19T15:14:08.895Z,47.70
2023-05-19T15:16:35.718Z,46.40
2023-05-19T15:19:02.543Z,46.60
2023-05-19T15:21:29.413Z,46.70
2023-05-19T15:23:57.278Z,47.40
2023-05-19T15:26:24.105Z,46.60
2023-05-19T15:28:52.157Z,46.70
2023-05-19T15:31:19.219Z,47.60
2023-05-19T15:33:46.212Z,46.80
2023-05-19T15:36:16.533Z,47.40
2023-05-19T15:38:43.434Z,47.80
2023-05-19T15:41:10.556Z,47.80
2023-05-19T15:43:37.462Z,48.20
2023-05-19T15:46:05.162Z,48.10
2023-05-19T15:48:32.425Z,47.80
2023-05-19T15:50:59.452Z,48.30
2023-05-19T15:53:26.389Z,46.90
2023-05-19T15:55:53.253Z,46.70
2023-05-19T15:58:20.087Z,45.00
2023-05-19T16:00:46.865Z,44.70
2023-05-19T16:03:13.770Z,45.10
2023-05-19T16:05:40.768Z,44.80
2023-05-19T16:08:08.804Z,44.40
2023-05-19T16:10:35.857Z,44.60
2023-05-19T16:13:02.687Z,44.80
2023-05-19T16:15:29.533Z,44.70
2023-05-19T16:17:56.857Z,44.70
2023-05-19T16:20:27.869Z,45.20
2023-05-19T16:22:55.515Z,44.40
2023-05-19T16:25:22.390Z,44.80
2023-05-19T16:27:49.280Z,45.20
2023-05-19T16:30:16.691Z,45.40
2023-05-19T16:32:43.644Z,45.30
2023-05-19T16:35:12.836Z,45.90
2023-05-19T16:37:39.825Z,46.10
2023-05-19T16:40:06.996Z,46.50
2023-05-19T16:42:33.827Z,47.50
2023-05-19T16:45:00.605Z,47.40
2023-05-19T16:47:27.530Z,47.60
2023-05-19T16:49:54.484Z,48.00
2023-05-19T16:52:21.365Z,48.80
2023-05-19T16:54:48.148Z,49.00
2023-05-19T16:57:14.954Z,48.70
2023-05-19T16:59:41.962Z,49.20
2023-05-19T17:02:10.147Z,49.60
2023-05-19T17:04:37.064Z,50.40
2023-05-19T17:07:03.924Z,50.40
2023-05-19T17:09:31.389Z,51.00
2023-05-19T17:11:58.211Z,51.00
2023-05-19T17:14:25.027Z,51.00
2023-05-19T17:16:52.586Z,51.30
2023-05-19T17:19:19.602Z,51.50
2023-05-19T17:21:46.440Z,51.90
2023-05-19T17:24:13.298Z,52.40
2023-05-19T17:26:40.125Z,52.50
2023-05-19T17:29:06.955Z,52.70
2023-05-19T17:31:33.828Z,53.60
2023-05-19T17:34:00.678Z,52.40
2023-05-19T17:36:27.463Z,52.70
2023-05-19T17:38:54.292Z,52.90
2023-05-19T17:41:21.052Z,54.00
2023-05-19T17:43:47.773Z,53.70
2023-05-19T17:46:14.558Z,54.60
2023-05-19T17:48:41.370Z,54.50
2023-05-19T17:51:08.315Z,55.20
2023-05-19T17:53:35.629Z,55.90
2023-05-19T17:56:03.669Z,56.10
2023-05-19T17:58:30.665Z,56.60
2023-05-19T18:00:57.658Z,56.80
2023-05-19T18:03:24.543Z,57.30
2023-05-19T18:05:51.740Z,57.80
2023-05-19T18:08:18.746Z,58.50
2023-05-19T18:10:46.228Z,59.00
2023-05-19T18:13:15.853Z,59.60
2023-05-19T18:15:43.093Z,60.20
2023-05-19T18:18:11.038Z,60.60
2023-05-19T18:20:38.820Z,60.90
2023-05-19T18:23:06.064Z,61.10
2023-05-19T18:25:32.847Z,61.50
2023-05-19T18:27:59.671Z,62.20
2023-05-19T18:30:26.575Z,62.30
2023-05-19T18:32:53.361Z,62.50
2023-05-19T18:35:21.284Z,62.70
2023-05-19T18:37:48.057Z,63.30
2023-05-19T18:40:14.821Z,63.40
2023-05-19T18:42:41.608Z,63.70
2023-05-19T18:45:08.681Z,63.60
2023-05-19T18:47:35.691Z,64.10
2023-05-19T18:50:02.490Z,64.70
2023-05-19T18:52:30.917Z,64.80
2023-05-19T18:54:57.882Z,65.40
2023-05-19T18:57:24.732Z,65.80
2023-05-19T18:59:51.763Z,65.90
2023-05-19T19:02:18.652Z,66.10
2023-05-19T19:04:46.686Z,67.00
2023-05-19T19:07:13.683Z,67.30
2023-05-19T19:09:43.864Z,67.30
2023-05-19T19:12:10.938Z,68.60
2023-05-19T19:14:38.571Z,68.30
2023-05-19T19:17:05.704Z,68.50
2023-05-19T19:19:32.826Z,68.70
2023-05-19T19:21:59.715Z,69.00
2023-05-19T19:24:28.463Z,69.70
2023-05-19T19:26:55.366Z,69.20
2023-05-19T19:29:22.321Z,69.40
2023-05-19T19:31:49.227Z,69.50
2023-05-19T19:34:16.093Z,69.00
2023-05-19T19:36:43.918Z,68.80
2023-05-19T19:39:10.726Z,69.30
2023-05-19T19:41:37.586Z,69.30
2023-05-19T19:44:04.515Z,69.80
2023-05-19T19:46:31.461Z,69.40
2023-05-19T19:49:00.400Z,69.70
2023-05-19T19:51:27.648Z,70.00
2023-05-19T19:53:54.533Z,70.10
2023-05-19T19:56:23.675Z,70.40
2023-05-19T19:58:51.078Z,69.80
2023-05-19T20:01:20.458Z,70.20
2023-05-19T20:03:48.118Z,70.10
2023-05-19T20:06:15.071Z,70.40
2023-05-19T20:08:41.860Z,70.40
2023-05-19T20:11:08.815Z,70.30
2023-05-19T20:13:35.818Z,70.60
2023-05-19T20:16:02.719Z,70.90
2023-05-19T20:18:29.978Z,70.90
2023-05-19T20:20:57.017Z,71.20
2023-05-19T20:23:23.870Z,71.30
2023-05-19T20:26:10.192Z,71.60
2023-05-19T20:28:37.549Z,72.10
2023-05-19T20:31:04.874Z,72.00
2023-05-19T20:33:32.047Z,71.80
2023-05-19T20:35:58.831Z,72.00
